DAL1952 KSLC-MMSD
Flight info
| Callsign | DAL1952 |
|---|---|
| Flight time | 2h 47m |
| Altitude | 35000 |
| Route | ZIONZ1 BCE J11 TUS J92 DASVU DCT ENEKO ENEKO1A |
| Aircraft | A321/M-SDE3FGHIRWY/LB1 |
Departure
| Time | 2026-05-04 18:15 |
|---|---|
| Airport | Salt Lake City International Airport (KSLC) |
Arrival
| Time | 2026-05-04 21:03 |
|---|---|
| Airport | Los Cabos International Airport (MMSD) |
| Time | Latitude | Longitude | Altitude | Speed | Heading |
|---|---|---|---|---|---|
| 2026-05-04 17:31 | 40.78629 | -111.98613 | 4231 ft | 0 kts | 175° |
| 2026-05-04 17:59 | 40.78631 | -111.98613 | 4231 ft | 2 kts | 175° |
| 2026-05-04 17:59 | 40.78677 | -111.98639 | 4231 ft | 4 kts | 126° |
| 2026-05-04 18:00 | 40.78689 | -111.98670 | 4231 ft | 4 kts | 101° |
| 2026-05-04 18:00 | 40.78691 | -111.98705 | 4231 ft | 4 kts | 86° |
| 2026-05-04 18:00 | 40.78689 | -111.98740 | 4231 ft | 4 kts | 83° |
| 2026-05-04 18:00 | 40.78690 | -111.98726 | 4231 ft | 4 kts | 84° |
| 2026-05-04 18:01 | 40.78692 | -111.98691 | 4231 ft | 4 kts | 84° |
| 2026-05-04 18:01 | 40.78694 | -111.98656 | 4231 ft | 4 kts | 84° |
| 2026-05-04 18:01 | 40.78697 | -111.98620 | 4231 ft | 4 kts | 85° |
| 2026-05-04 18:02 | 40.78699 | -111.98593 | 4225 ft | 4 kts | 85° |
| 2026-05-04 18:02 | 40.78697 | -111.98629 | 4231 ft | 4 kts | 85° |
| 2026-05-04 18:02 | 40.78694 | -111.98664 | 4231 ft | 4 kts | 85° |
| 2026-05-04 18:02 | 40.78692 | -111.98691 | 4231 ft | 0 kts | 85° |
| 2026-05-04 18:05 | 40.78692 | -111.98690 | 4231 ft | 1 kts | 85° |
| 2026-05-04 18:06 | 40.78695 | -111.98652 | 4231 ft | 3 kts | 85° |
| 2026-05-04 18:06 | 40.78698 | -111.98601 | 4246 ft | 9 kts | 85° |
| 2026-05-04 18:06 | 40.78706 | -111.98494 | 4231 ft | 12 kts | 85° |
| 2026-05-04 18:07 | 40.78712 | -111.98391 | 4231 ft | 11 kts | 85° |
| 2026-05-04 18:07 | 40.78719 | -111.98291 | 4231 ft | 11 kts | 84° |
| 2026-05-04 18:07 | 40.78726 | -111.98190 | 4231 ft | 13 kts | 85° |
| 2026-05-04 18:07 | 40.78736 | -111.98044 | 4231 ft | 17 kts | 85° |
| 2026-05-04 18:08 | 40.78746 | -111.97902 | 4231 ft | 15 kts | 85° |
| 2026-05-04 18:08 | 40.78754 | -111.97777 | 4231 ft | 13 kts | 85° |
| 2026-05-04 18:08 | 40.78787 | -111.97691 | 4231 ft | 10 kts | 21° |
| 2026-05-04 18:08 | 40.78848 | -111.97693 | 4231 ft | 8 kts | 354° |
| 2026-05-04 18:09 | 40.78970 | -111.97707 | 4231 ft | 13 kts | 355° |
| 2026-05-04 18:09 | 40.79151 | -111.97728 | 4231 ft | 17 kts | 355° |
| 2026-05-04 18:10 | 40.79289 | -111.97744 | 4231 ft | 20 kts | 355° |
| 2026-05-04 18:10 | 40.79421 | -111.97760 | 4231 ft | 18 kts | 355° |
| 2026-05-04 18:10 | 40.79541 | -111.97773 | 4230 ft | 16 kts | 355° |
| 2026-05-04 18:10 | 40.79653 | -111.97786 | 4230 ft | 18 kts | 355° |
| 2026-05-04 18:11 | 40.79785 | -111.97801 | 4231 ft | 19 kts | 354° |
| 2026-05-04 18:11 | 40.79908 | -111.97816 | 4231 ft | 17 kts | 355° |
| 2026-05-04 18:11 | 40.80019 | -111.97829 | 4231 ft | 16 kts | 355° |
| 2026-05-04 18:11 | 40.80122 | -111.97841 | 4231 ft | 14 kts | 355° |
| 2026-05-04 18:12 | 40.80227 | -111.97850 | 4231 ft | 18 kts | 359° |
| 2026-05-04 18:12 | 40.80359 | -111.97822 | 4232 ft | 19 kts | 9° |
| 2026-05-04 18:12 | 40.80484 | -111.97830 | 4231 ft | 17 kts | 354° |
| 2026-05-04 18:12 | 40.80596 | -111.97845 | 4231 ft | 16 kts | 354° |
| 2026-05-04 18:13 | 40.80698 | -111.97854 | 4231 ft | 12 kts | 357° |
| 2026-05-04 18:13 | 40.80741 | -111.97836 | 4230 ft | 5 kts | 45° |
| 2026-05-04 18:13 | 40.80697 | -111.97706 | 4229 ft | 6 kts | 147° |
| 2026-05-04 18:14 | 40.80657 | -111.97690 | 4229 ft | 10 kts | 171° |
| 2026-05-04 18:14 | 40.80436 | -111.97663 | 4233 ft | 65 kts | 175° |
| 2026-05-04 18:14 | 40.79772 | -111.97584 | 4230 ft | 125 kts | 175° |
| 2026-05-04 18:15 | 40.77512 | -111.97310 | 4702 ft | 173 kts | 176° |
| 2026-05-04 18:15 | 40.75076 | -111.96869 | 5966 ft | 182 kts | 172° |
| 2026-05-04 18:15 | 40.73781 | -111.96571 | 6113 ft | 198 kts | 172° |
| 2026-05-04 18:16 | 40.72379 | -111.96223 | 6209 ft | 212 kts | 169° |
| 2026-05-04 18:16 | 40.70872 | -111.95941 | 6313 ft | 226 kts | 176° |
| 2026-05-04 18:16 | 40.69236 | -111.95847 | 6425 ft | 247 kts | 179° |
| 2026-05-04 18:17 | 40.65543 | -111.95793 | 6963 ft | 277 kts | 180° |
| 2026-05-04 18:17 | 40.63610 | -111.95763 | 7519 ft | 278 kts | 180° |
| 2026-05-04 18:17 | 40.59705 | -111.95670 | 8968 ft | 283 kts | 180° |
| 2026-05-04 18:18 | 40.57725 | -111.95609 | 9684 ft | 285 kts | 180° |
| 2026-05-04 18:18 | 40.55720 | -111.95541 | 10221 ft | 294 kts | 180° |
| 2026-05-04 18:18 | 40.53593 | -111.95469 | 10371 ft | 317 kts | 180° |
| 2026-05-04 18:18 | 40.51322 | -111.95394 | 10568 ft | 334 kts | 179° |
| 2026-05-04 18:19 | 40.46578 | -111.95229 | 11646 ft | 346 kts | 179° |
| 2026-05-04 18:19 | 40.44162 | -111.95121 | 12245 ft | 350 kts | 178° |
| 2026-05-04 18:19 | 40.41721 | -111.94964 | 12871 ft | 353 kts | 177° |
| 2026-05-04 18:20 | 40.39251 | -111.94779 | 13478 ft | 357 kts | 176° |
| 2026-05-04 18:20 | 40.36757 | -111.94583 | 14060 ft | 361 kts | 176° |
| 2026-05-04 18:20 | 40.34242 | -111.94389 | 14654 ft | 363 kts | 176° |
| 2026-05-04 18:20 | 40.31708 | -111.94203 | 15260 ft | 366 kts | 176° |
| 2026-05-04 18:21 | 40.29160 | -111.94024 | 15857 ft | 368 kts | 177° |
| 2026-05-04 18:21 | 40.26589 | -111.93944 | 16434 ft | 371 kts | 183° |
| 2026-05-04 18:21 | 40.24018 | -111.94315 | 17031 ft | 373 kts | 187° |
| 2026-05-04 18:21 | 40.21431 | -111.94733 | 17625 ft | 375 kts | 187° |
| 2026-05-04 18:22 | 40.18832 | -111.95146 | 18168 ft | 378 kts | 186° |
| 2026-05-04 18:22 | 40.16215 | -111.95556 | 18668 ft | 380 kts | 186° |
| 2026-05-04 18:22 | 40.13584 | -111.95966 | 19125 ft | 383 kts | 186° |
| 2026-05-04 18:22 | 40.10932 | -111.96374 | 19591 ft | 385 kts | 186° |
| 2026-05-04 18:23 | 40.08258 | -111.96770 | 20028 ft | 388 kts | 186° |
| 2026-05-04 18:23 | 40.05567 | -111.97160 | 20424 ft | 391 kts | 186° |
| 2026-05-04 18:23 | 40.02862 | -111.97549 | 20931 ft | 391 kts | 186° |
| 2026-05-04 18:23 | 40.00148 | -111.97940 | 21394 ft | 394 kts | 187° |
| 2026-05-04 18:24 | 39.97416 | -111.98336 | 21840 ft | 396 kts | 187° |
| 2026-05-04 18:24 | 39.94664 | -111.98738 | 22252 ft | 400 kts | 187° |
| 2026-05-04 18:24 | 39.91900 | -111.99138 | 22683 ft | 402 kts | 187° |
| 2026-05-04 18:24 | 39.89099 | -111.99543 | 23083 ft | 405 kts | 188° |
| 2026-05-04 18:25 | 39.86290 | -111.99949 | 23473 ft | 408 kts | 187° |
| 2026-05-04 18:25 | 39.83451 | -112.00361 | 23819 ft | 410 kts | 188° |
| 2026-05-04 18:25 | 39.80616 | -112.00776 | 24224 ft | 410 kts | 188° |
| 2026-05-04 18:25 | 39.77820 | -112.01186 | 24594 ft | 412 kts | 189° |
| 2026-05-04 18:26 | 39.74919 | -112.01608 | 24961 ft | 413 kts | 189° |
| 2026-05-04 18:26 | 39.72095 | -112.02017 | 25316 ft | 415 kts | 189° |
| 2026-05-04 18:26 | 39.69219 | -112.02434 | 25660 ft | 417 kts | 190° |
| 2026-05-04 18:26 | 39.66331 | -112.02855 | 26020 ft | 418 kts | 190° |
| 2026-05-04 18:27 | 39.63433 | -112.03279 | 26370 ft | 420 kts | 190° |
| 2026-05-04 18:27 | 39.60528 | -112.03704 | 26720 ft | 421 kts | 191° |
| 2026-05-04 18:27 | 39.57617 | -112.04128 | 27077 ft | 422 kts | 192° |
| 2026-05-04 18:27 | 39.54693 | -112.04551 | 27418 ft | 423 kts | 192° |
| 2026-05-04 18:28 | 39.51758 | -112.04975 | 27736 ft | 425 kts | 192° |
| 2026-05-04 18:28 | 39.48814 | -112.05400 | 28059 ft | 427 kts | 192° |
| 2026-05-04 18:28 | 39.45856 | -112.05824 | 28368 ft | 428 kts | 192° |
| 2026-05-04 18:28 | 39.42887 | -112.06248 | 28662 ft | 430 kts | 192° |
| 2026-05-04 18:29 | 39.39902 | -112.06673 | 28921 ft | 432 kts | 193° |
| 2026-05-04 18:29 | 39.36916 | -112.07094 | 29250 ft | 432 kts | 193° |
| 2026-05-04 18:29 | 39.33922 | -112.07515 | 29543 ft | 434 kts | 193° |
| 2026-05-04 18:29 | 39.30915 | -112.07936 | 29827 ft | 436 kts | 193° |
| 2026-05-04 18:30 | 39.24869 | -112.08797 | 30331 ft | 438 kts | 193° |
| 2026-05-04 18:30 | 39.21833 | -112.09230 | 30631 ft | 438 kts | 193° |
| 2026-05-04 18:30 | 39.18807 | -112.09660 | 31002 ft | 436 kts | 194° |
| 2026-05-04 18:31 | 39.15801 | -112.10084 | 31357 ft | 434 kts | 193° |
| 2026-05-04 18:31 | 39.12803 | -112.10505 | 31677 ft | 432 kts | 194° |
| 2026-05-04 18:31 | 39.09825 | -112.10923 | 32065 ft | 430 kts | 194° |
| 2026-05-04 18:31 | 39.06860 | -112.11338 | 32404 ft | 426 kts | 195° |
| 2026-05-04 18:32 | 39.03918 | -112.11746 | 32782 ft | 425 kts | 195° |
| 2026-05-04 18:32 | 39.00979 | -112.12158 | 33048 ft | 425 kts | 195° |
| 2026-05-04 18:32 | 38.98039 | -112.12574 | 33263 ft | 425 kts | 195° |
| 2026-05-04 18:32 | 38.95110 | -112.12988 | 33636 ft | 422 kts | 196° |
| 2026-05-04 18:33 | 38.92199 | -112.13402 | 33990 ft | 419 kts | 196° |
| 2026-05-04 18:33 | 38.89311 | -112.13810 | 34346 ft | 416 kts | 195° |
| 2026-05-04 18:33 | 38.86444 | -112.14212 | 34690 ft | 414 kts | 196° |
| 2026-05-04 18:33 | 38.83582 | -112.14611 | 34852 ft | 412 kts | 196° |
| 2026-05-04 18:34 | 38.80747 | -112.15002 | 34881 ft | 408 kts | 196° |
| 2026-05-04 18:34 | 38.75132 | -112.15779 | 34862 ft | 405 kts | 196° |
| 2026-05-04 18:35 | 38.69577 | -112.16548 | 34850 ft | 400 kts | 197° |
| 2026-05-04 18:35 | 38.64058 | -112.17320 | 34832 ft | 398 kts | 197° |
| 2026-05-04 18:36 | 38.58586 | -112.18087 | 34832 ft | 398 kts | 197° |
| 2026-05-04 18:36 | 38.53078 | -112.18858 | 34839 ft | 398 kts | 197° |
| 2026-05-04 18:37 | 38.47566 | -112.19619 | 34841 ft | 399 kts | 197° |
| 2026-05-04 18:37 | 38.42054 | -112.20382 | 34843 ft | 398 kts | 197° |
| 2026-05-04 18:38 | 38.36544 | -112.21145 | 34844 ft | 398 kts | 197° |
| 2026-05-04 18:38 | 38.31038 | -112.21900 | 34846 ft | 398 kts | 197° |
| 2026-05-04 18:39 | 38.25543 | -112.22655 | 34844 ft | 396 kts | 198° |
| 2026-05-04 18:39 | 38.20072 | -112.23409 | 34859 ft | 395 kts | 198° |
| 2026-05-04 18:40 | 38.14617 | -112.24163 | 34854 ft | 394 kts | 198° |
| 2026-05-04 18:40 | 38.09164 | -112.24916 | 34849 ft | 394 kts | 198° |
| 2026-05-04 18:41 | 38.03720 | -112.25662 | 34855 ft | 393 kts | 198° |
| 2026-05-04 18:41 | 37.98291 | -112.26394 | 34868 ft | 392 kts | 198° |
| 2026-05-04 18:42 | 37.92883 | -112.27126 | 34967 ft | 390 kts | 199° |
| 2026-05-04 18:42 | 37.87494 | -112.27862 | 35007 ft | 389 kts | 199° |
| 2026-05-04 18:43 | 37.82118 | -112.28599 | 35027 ft | 388 kts | 199° |
| 2026-05-04 18:43 | 37.76764 | -112.29332 | 35060 ft | 387 kts | 199° |
| 2026-05-04 18:44 | 37.71408 | -112.30055 | 35067 ft | 386 kts | 199° |
| 2026-05-04 18:44 | 37.66046 | -112.30687 | 35057 ft | 390 kts | 197° |
| 2026-05-04 18:45 | 37.60646 | -112.31007 | 35014 ft | 391 kts | 195° |
| 2026-05-04 18:45 | 37.55217 | -112.31247 | 34997 ft | 390 kts | 196° |
| 2026-05-04 18:46 | 37.49818 | -112.31539 | 34963 ft | 388 kts | 197° |
| 2026-05-04 18:46 | 37.44435 | -112.31873 | 34924 ft | 387 kts | 197° |
| 2026-05-04 18:47 | 37.39068 | -112.32213 | 34855 ft | 387 kts | 196° |
| 2026-05-04 18:47 | 37.33701 | -112.32543 | 34859 ft | 385 kts | 196° |
| 2026-05-04 18:48 | 37.28352 | -112.32866 | 34862 ft | 384 kts | 196° |
| 2026-05-04 18:48 | 37.23017 | -112.33185 | 34864 ft | 384 kts | 196° |
| 2026-05-04 18:49 | 37.17687 | -112.33506 | 34817 ft | 383 kts | 196° |
| 2026-05-04 18:49 | 37.12374 | -112.33829 | 34821 ft | 383 kts | 196° |
| 2026-05-04 18:50 | 37.07943 | -112.34097 | 34825 ft | 383 kts | 196° |
| 2026-05-04 18:50 | 37.02606 | -112.34419 | 34836 ft | 384 kts | 196° |
| 2026-05-04 18:51 | 36.97270 | -112.34742 | 34845 ft | 384 kts | 196° |
| 2026-05-04 18:51 | 36.91929 | -112.35062 | 34838 ft | 384 kts | 196° |
| 2026-05-04 18:52 | 36.86593 | -112.35382 | 34854 ft | 384 kts | 196° |
| 2026-05-04 18:52 | 36.81262 | -112.35711 | 34863 ft | 383 kts | 196° |
| 2026-05-04 18:53 | 36.75938 | -112.36034 | 34873 ft | 383 kts | 196° |
| 2026-05-04 18:53 | 36.70614 | -112.36341 | 34854 ft | 383 kts | 197° |
| 2026-05-04 18:54 | 36.65302 | -112.36656 | 34865 ft | 381 kts | 197° |
| 2026-05-04 18:54 | 36.60004 | -112.36980 | 34871 ft | 381 kts | 197° |
| 2026-05-04 18:55 | 36.54706 | -112.37301 | 34882 ft | 381 kts | 197° |
| 2026-05-04 18:55 | 36.46759 | -112.37770 | 34859 ft | 381 kts | 197° |
| 2026-05-04 18:56 | 36.41458 | -112.38084 | 34856 ft | 382 kts | 197° |
| 2026-05-04 18:56 | 36.36152 | -112.38401 | 34868 ft | 382 kts | 197° |
| 2026-05-04 18:57 | 36.30856 | -112.38711 | 34871 ft | 381 kts | 197° |
| 2026-05-04 18:57 | 36.25566 | -112.39020 | 34864 ft | 381 kts | 197° |
| 2026-05-04 18:58 | 36.20305 | -112.39335 | 34903 ft | 381 kts | 197° |
| 2026-05-04 18:58 | 36.15003 | -112.39651 | 34936 ft | 381 kts | 197° |
| 2026-05-04 18:59 | 36.09706 | -112.39963 | 34967 ft | 381 kts | 197° |
| 2026-05-04 18:59 | 36.04414 | -112.40280 | 34987 ft | 381 kts | 197° |
| 2026-05-04 19:00 | 35.99115 | -112.40590 | 34964 ft | 382 kts | 197° |
| 2026-05-04 19:00 | 35.93791 | -112.40894 | 34956 ft | 384 kts | 197° |
| 2026-05-04 19:01 | 35.88449 | -112.41207 | 34949 ft | 385 kts | 197° |
| 2026-05-04 19:01 | 35.83089 | -112.41529 | 34932 ft | 386 kts | 197° |
| 2026-05-04 19:02 | 35.77718 | -112.41841 | 34893 ft | 387 kts | 197° |
| 2026-05-04 19:02 | 35.72331 | -112.42155 | 34883 ft | 388 kts | 197° |
| 2026-05-04 19:03 | 35.66923 | -112.42475 | 34862 ft | 390 kts | 197° |
| 2026-05-04 19:03 | 35.61516 | -112.42787 | 34842 ft | 391 kts | 197° |
| 2026-05-04 19:04 | 35.56071 | -112.43097 | 34879 ft | 391 kts | 197° |
| 2026-05-04 19:04 | 35.50638 | -112.43413 | 34915 ft | 391 kts | 197° |
| 2026-05-04 19:05 | 35.45198 | -112.43731 | 34955 ft | 391 kts | 197° |
| 2026-05-04 19:05 | 35.39764 | -112.44046 | 34982 ft | 391 kts | 197° |
| 2026-05-04 19:06 | 35.34330 | -112.44356 | 34997 ft | 391 kts | 196° |
| 2026-05-04 19:06 | 35.28915 | -112.44669 | 34968 ft | 390 kts | 197° |
| 2026-05-04 19:07 | 35.23477 | -112.44987 | 34966 ft | 390 kts | 196° |
| 2026-05-04 19:07 | 35.18050 | -112.45295 | 34949 ft | 390 kts | 196° |
| 2026-05-04 19:08 | 35.15336 | -112.45450 | 34846 ft | 390 kts | 196° |
| 2026-05-04 19:08 | 35.12625 | -112.45609 | 34848 ft | 390 kts | 197° |
| 2026-05-04 19:08 | 35.07180 | -112.45937 | 34810 ft | 391 kts | 196° |
| 2026-05-04 19:09 | 35.01773 | -112.46241 | 34843 ft | 388 kts | 196° |
| 2026-05-04 19:09 | 34.96429 | -112.46542 | 34883 ft | 387 kts | 196° |
| 2026-05-04 19:10 | 34.91048 | -112.46851 | 34926 ft | 387 kts | 196° |
| 2026-05-04 19:10 | 34.85675 | -112.47155 | 34968 ft | 387 kts | 196° |
| 2026-05-04 19:11 | 34.80313 | -112.47463 | 34977 ft | 387 kts | 196° |
| 2026-05-04 19:11 | 34.74919 | -112.47771 | 35025 ft | 387 kts | 196° |
| 2026-05-04 19:12 | 34.66651 | -112.46612 | 35046 ft | 425 kts | 176° |
| 2026-05-04 19:13 | 34.61048 | -112.44295 | 35045 ft | 426 kts | 176° |
| 2026-05-04 19:13 | 34.55409 | -112.41985 | 35033 ft | 429 kts | 176° |
| 2026-05-04 19:14 | 34.49744 | -112.39688 | 35003 ft | 430 kts | 176° |
| 2026-05-04 19:14 | 34.44072 | -112.37390 | 34883 ft | 430 kts | 176° |
| 2026-05-04 19:15 | 34.38407 | -112.35086 | 34857 ft | 429 kts | 176° |
| 2026-05-04 19:15 | 34.32739 | -112.32796 | 34884 ft | 430 kts | 176° |
| 2026-05-04 19:16 | 34.27064 | -112.30505 | 34890 ft | 430 kts | 176° |
| 2026-05-04 19:16 | 34.21383 | -112.28217 | 34910 ft | 430 kts | 176° |
| 2026-05-04 19:17 | 34.15715 | -112.25934 | 34906 ft | 430 kts | 176° |
| 2026-05-04 19:17 | 34.10025 | -112.23649 | 34911 ft | 431 kts | 175° |
| 2026-05-04 19:18 | 34.04380 | -112.21379 | 34923 ft | 430 kts | 175° |
| 2026-05-04 19:18 | 33.98701 | -112.19092 | 34929 ft | 430 kts | 175° |
| 2026-05-04 19:19 | 33.93024 | -112.16813 | 34937 ft | 430 kts | 175° |
| 2026-05-04 19:19 | 33.87347 | -112.14548 | 34938 ft | 430 kts | 175° |
| 2026-05-04 19:20 | 33.81676 | -112.12278 | 34918 ft | 429 kts | 175° |
| 2026-05-04 19:20 | 33.75998 | -112.10011 | 34922 ft | 430 kts | 175° |
| 2026-05-04 19:21 | 33.70308 | -112.07742 | 34968 ft | 431 kts | 175° |
| 2026-05-04 19:21 | 33.64604 | -112.05473 | 34979 ft | 432 kts | 175° |
| 2026-05-04 19:22 | 33.58900 | -112.03211 | 34986 ft | 432 kts | 176° |
| 2026-05-04 19:22 | 33.53195 | -112.00947 | 34967 ft | 432 kts | 175° |
| 2026-05-04 19:23 | 33.47487 | -111.98685 | 34943 ft | 432 kts | 175° |
| 2026-05-04 19:23 | 33.41805 | -111.96228 | 34956 ft | 444 kts | 169° |
| 2026-05-04 19:24 | 33.36172 | -111.93159 | 34963 ft | 444 kts | 169° |
| 2026-05-04 19:24 | 33.30550 | -111.90092 | 34978 ft | 444 kts | 169° |
| 2026-05-04 19:25 | 33.24926 | -111.87032 | 34957 ft | 444 kts | 169° |
| 2026-05-04 19:25 | 33.19307 | -111.83986 | 34966 ft | 444 kts | 169° |
| 2026-05-04 19:26 | 33.13672 | -111.80938 | 34966 ft | 444 kts | 169° |
| 2026-05-04 19:26 | 33.08082 | -111.77920 | 34942 ft | 444 kts | 169° |
| 2026-05-04 19:27 | 33.02405 | -111.74848 | 34942 ft | 445 kts | 169° |
| 2026-05-04 19:27 | 32.96752 | -111.71804 | 34956 ft | 446 kts | 169° |
| 2026-05-04 19:28 | 32.91100 | -111.68757 | 34966 ft | 446 kts | 169° |
| 2026-05-04 19:28 | 32.85440 | -111.65718 | 34966 ft | 446 kts | 169° |
| 2026-05-04 19:28 | 32.82662 | -111.63998 | 34963 ft | 461 kts | 160° |
| 2026-05-04 19:29 | 32.80051 | -111.61655 | 34924 ft | 475 kts | 152° |
| 2026-05-04 19:29 | 32.75009 | -111.56575 | 34927 ft | 475 kts | 152° |
| 2026-05-04 19:30 | 32.69965 | -111.51487 | 34950 ft | 476 kts | 152° |
| 2026-05-04 19:30 | 32.64913 | -111.46420 | 34971 ft | 475 kts | 152° |
| 2026-05-04 19:31 | 32.59850 | -111.41370 | 34991 ft | 475 kts | 152° |
| 2026-05-04 19:31 | 32.54785 | -111.36328 | 34982 ft | 475 kts | 152° |
| 2026-05-04 19:32 | 32.49725 | -111.31286 | 34991 ft | 475 kts | 152° |
| 2026-05-04 19:32 | 32.44713 | -111.26293 | 34977 ft | 475 kts | 152° |
| 2026-05-04 19:33 | 32.39639 | -111.21247 | 34981 ft | 475 kts | 152° |
| 2026-05-04 19:33 | 32.34577 | -111.16231 | 34963 ft | 474 kts | 153° |
| 2026-05-04 19:34 | 32.29518 | -111.11224 | 34978 ft | 474 kts | 152° |
| 2026-05-04 19:34 | 32.24455 | -111.06209 | 34979 ft | 475 kts | 152° |
| 2026-05-04 19:35 | 32.19394 | -111.01207 | 35024 ft | 474 kts | 152° |
| 2026-05-04 19:35 | 32.14315 | -110.96247 | 35004 ft | 470 kts | 156° |
| 2026-05-04 19:35 | 32.11613 | -110.94224 | 35013 ft | 452 kts | 166° |
| 2026-05-04 19:36 | 32.08773 | -110.92822 | 35021 ft | 434 kts | 175° |
| 2026-05-04 19:36 | 32.05889 | -110.92022 | 35025 ft | 418 kts | 185° |
| 2026-05-04 19:36 | 32.03044 | -110.91792 | 35026 ft | 404 kts | 193° |
| 2026-05-04 19:37 | 31.97469 | -110.92070 | 35004 ft | 401 kts | 194° |
| 2026-05-04 19:37 | 31.92834 | -110.92281 | 34982 ft | 401 kts | 194° |
| 2026-05-04 19:38 | 31.87250 | -110.92522 | 34939 ft | 401 kts | 194° |
| 2026-05-04 19:38 | 31.81679 | -110.92768 | 34922 ft | 401 kts | 194° |
| 2026-05-04 19:39 | 31.76092 | -110.93034 | 34901 ft | 401 kts | 194° |
| 2026-05-04 19:39 | 31.70515 | -110.93301 | 34911 ft | 401 kts | 194° |
| 2026-05-04 19:40 | 31.64935 | -110.93562 | 34925 ft | 401 kts | 194° |
| 2026-05-04 19:40 | 31.59355 | -110.93809 | 35032 ft | 401 kts | 194° |
| 2026-05-04 19:41 | 31.53782 | -110.94060 | 35056 ft | 401 kts | 194° |
| 2026-05-04 19:41 | 31.48208 | -110.94319 | 35081 ft | 401 kts | 194° |
| 2026-05-04 19:42 | 31.42646 | -110.94577 | 35097 ft | 401 kts | 194° |
| 2026-05-04 19:42 | 31.37061 | -110.94829 | 35059 ft | 401 kts | 193° |
| 2026-05-04 19:43 | 31.31489 | -110.95074 | 35045 ft | 401 kts | 193° |
| 2026-05-04 19:43 | 31.25913 | -110.95328 | 35027 ft | 401 kts | 193° |
| 2026-05-04 19:44 | 31.20373 | -110.95585 | 34999 ft | 401 kts | 193° |
| 2026-05-04 19:44 | 31.14799 | -110.95846 | 34972 ft | 401 kts | 193° |
| 2026-05-04 19:45 | 31.09228 | -110.96106 | 34912 ft | 401 kts | 193° |
| 2026-05-04 19:45 | 31.03642 | -110.96355 | 34913 ft | 402 kts | 193° |
| 2026-05-04 19:46 | 30.98048 | -110.96601 | 34921 ft | 402 kts | 193° |
| 2026-05-04 19:46 | 30.92449 | -110.96854 | 34929 ft | 403 kts | 193° |
| 2026-05-04 19:47 | 30.86856 | -110.97110 | 34928 ft | 402 kts | 193° |
| 2026-05-04 19:47 | 30.81268 | -110.97370 | 34905 ft | 402 kts | 193° |
| 2026-05-04 19:48 | 30.75668 | -110.97640 | 34919 ft | 403 kts | 193° |
| 2026-05-04 19:48 | 30.70066 | -110.97920 | 34927 ft | 403 kts | 193° |
| 2026-05-04 19:49 | 30.64500 | -110.98196 | 34927 ft | 401 kts | 193° |
| 2026-05-04 19:49 | 30.58889 | -110.98470 | 34915 ft | 403 kts | 193° |
| 2026-05-04 19:50 | 30.53276 | -110.98740 | 34931 ft | 404 kts | 193° |
| 2026-05-04 19:50 | 30.47706 | -110.99002 | 34930 ft | 404 kts | 193° |
| 2026-05-04 19:51 | 30.42054 | -110.99259 | 34936 ft | 404 kts | 193° |
| 2026-05-04 19:51 | 30.36440 | -110.99512 | 34937 ft | 404 kts | 193° |
| 2026-05-04 19:52 | 30.30824 | -110.99765 | 34913 ft | 404 kts | 192° |
| 2026-05-04 19:52 | 30.25237 | -111.00016 | 34924 ft | 405 kts | 192° |
| 2026-05-04 19:53 | 30.19602 | -111.00274 | 34923 ft | 406 kts | 192° |
| 2026-05-04 19:53 | 30.13953 | -111.00536 | 34929 ft | 407 kts | 192° |
| 2026-05-04 19:54 | 30.08294 | -111.00787 | 34941 ft | 407 kts | 192° |
| 2026-05-04 19:54 | 30.02629 | -111.01041 | 34927 ft | 408 kts | 192° |
| 2026-05-04 19:55 | 29.96959 | -111.01298 | 34934 ft | 408 kts | 192° |
| 2026-05-04 19:55 | 29.91283 | -111.01553 | 34940 ft | 409 kts | 192° |
| 2026-05-04 19:56 | 29.85591 | -111.01810 | 34947 ft | 409 kts | 192° |
| 2026-05-04 19:56 | 29.79916 | -111.02065 | 34954 ft | 409 kts | 192° |
| 2026-05-04 19:57 | 29.74210 | -111.02316 | 34941 ft | 410 kts | 192° |
| 2026-05-04 19:57 | 29.68513 | -111.02574 | 34951 ft | 410 kts | 192° |
| 2026-05-04 19:58 | 29.62824 | -111.02832 | 34957 ft | 410 kts | 192° |
| 2026-05-04 19:58 | 29.57116 | -111.03085 | 34963 ft | 410 kts | 192° |
| 2026-05-04 19:59 | 29.51419 | -111.03337 | 34947 ft | 410 kts | 192° |
| 2026-05-04 19:59 | 29.45725 | -111.03595 | 34957 ft | 409 kts | 192° |
| 2026-05-04 20:00 | 29.40032 | -111.03853 | 34974 ft | 409 kts | 192° |
| 2026-05-04 20:00 | 29.34338 | -111.04110 | 34994 ft | 409 kts | 192° |
| 2026-05-04 20:01 | 29.28690 | -111.04366 | 35013 ft | 409 kts | 192° |
| 2026-05-04 20:01 | 29.23030 | -111.04619 | 34996 ft | 409 kts | 192° |
| 2026-05-04 20:02 | 29.17303 | -111.04875 | 35008 ft | 410 kts | 192° |
| 2026-05-04 20:02 | 29.11590 | -111.05130 | 35012 ft | 411 kts | 192° |
| 2026-05-04 20:03 | 29.05800 | -111.04813 | 35016 ft | 421 kts | 184° |
| 2026-05-04 20:03 | 28.99963 | -111.04159 | 35018 ft | 422 kts | 184° |
| 2026-05-04 20:04 | 28.94126 | -111.03508 | 35006 ft | 422 kts | 184° |
| 2026-05-04 20:04 | 28.88285 | -111.02861 | 34991 ft | 422 kts | 184° |
| 2026-05-04 20:05 | 28.82451 | -111.02212 | 34945 ft | 421 kts | 184° |
| 2026-05-04 20:05 | 28.76612 | -111.01573 | 34951 ft | 421 kts | 185° |
| 2026-05-04 20:06 | 28.70831 | -111.00948 | 34954 ft | 421 kts | 184° |
| 2026-05-04 20:06 | 28.64942 | -111.00297 | 34937 ft | 422 kts | 184° |
| 2026-05-04 20:07 | 28.59098 | -110.99636 | 34935 ft | 422 kts | 184° |
| 2026-05-04 20:07 | 28.53288 | -110.98985 | 34942 ft | 422 kts | 184° |
| 2026-05-04 20:08 | 28.47436 | -110.98346 | 34952 ft | 423 kts | 184° |
| 2026-05-04 20:08 | 28.41576 | -110.97706 | 34927 ft | 423 kts | 184° |
| 2026-05-04 20:09 | 28.35711 | -110.97062 | 34947 ft | 424 kts | 184° |
| 2026-05-04 20:09 | 28.29847 | -110.96414 | 34960 ft | 423 kts | 184° |
| 2026-05-04 20:10 | 28.23983 | -110.95781 | 34962 ft | 423 kts | 184° |
| 2026-05-04 20:10 | 28.18120 | -110.95147 | 34965 ft | 424 kts | 184° |
| 2026-05-04 20:11 | 28.12249 | -110.94498 | 34987 ft | 424 kts | 184° |
| 2026-05-04 20:11 | 28.06416 | -110.93857 | 35011 ft | 424 kts | 184° |
| 2026-05-04 20:12 | 28.00544 | -110.93220 | 35016 ft | 423 kts | 184° |
| 2026-05-04 20:12 | 27.94683 | -110.92573 | 35018 ft | 424 kts | 183° |
| 2026-05-04 20:13 | 27.88813 | -110.91706 | 35001 ft | 426 kts | 181° |
| 2026-05-04 20:13 | 27.82943 | -110.90744 | 35000 ft | 426 kts | 181° |
| 2026-05-04 20:14 | 27.77078 | -110.89829 | 34998 ft | 425 kts | 182° |
| 2026-05-04 20:14 | 27.71211 | -110.88954 | 34995 ft | 425 kts | 182° |
| 2026-05-04 20:15 | 27.65345 | -110.88080 | 34991 ft | 425 kts | 182° |
| 2026-05-04 20:15 | 27.59488 | -110.87201 | 34978 ft | 425 kts | 181° |
| 2026-05-04 20:16 | 27.53644 | -110.86320 | 34981 ft | 426 kts | 181° |
| 2026-05-04 20:16 | 27.47733 | -110.85424 | 34986 ft | 426 kts | 181° |
| 2026-05-04 20:17 | 27.41897 | -110.84540 | 34991 ft | 426 kts | 181° |
| 2026-05-04 20:17 | 27.36015 | -110.83659 | 34998 ft | 426 kts | 182° |
| 2026-05-04 20:18 | 27.30134 | -110.82783 | 34985 ft | 426 kts | 181° |
| 2026-05-04 20:18 | 27.24252 | -110.81901 | 34992 ft | 427 kts | 181° |
| 2026-05-04 20:19 | 27.18361 | -110.81019 | 34996 ft | 427 kts | 181° |
| 2026-05-04 20:19 | 27.12457 | -110.80138 | 34987 ft | 429 kts | 181° |
| 2026-05-04 20:20 | 27.06539 | -110.79245 | 34967 ft | 429 kts | 180° |
| 2026-05-04 20:20 | 27.00629 | -110.78363 | 34986 ft | 430 kts | 181° |
| 2026-05-04 20:21 | 26.94728 | -110.77496 | 34988 ft | 430 kts | 181° |
| 2026-05-04 20:21 | 26.85850 | -110.76176 | 34991 ft | 430 kts | 181° |
| 2026-05-04 20:22 | 26.79959 | -110.75301 | 34995 ft | 430 kts | 181° |
| 2026-05-04 20:22 | 26.73981 | -110.74410 | 34981 ft | 430 kts | 180° |
| 2026-05-04 20:23 | 26.68049 | -110.73531 | 34984 ft | 430 kts | 180° |
| 2026-05-04 20:23 | 26.62119 | -110.72652 | 34986 ft | 430 kts | 180° |
| 2026-05-04 20:24 | 26.56189 | -110.71776 | 34996 ft | 430 kts | 180° |
| 2026-05-04 20:24 | 26.50261 | -110.70902 | 34979 ft | 430 kts | 180° |
| 2026-05-04 20:25 | 26.44334 | -110.70024 | 34985 ft | 429 kts | 180° |
| 2026-05-04 20:25 | 26.38412 | -110.69146 | 34987 ft | 429 kts | 180° |
| 2026-05-04 20:26 | 26.32532 | -110.68271 | 34985 ft | 429 kts | 180° |
| 2026-05-04 20:26 | 26.26614 | -110.67399 | 34984 ft | 429 kts | 180° |
| 2026-05-04 20:27 | 26.20694 | -110.66536 | 34982 ft | 429 kts | 180° |
| 2026-05-04 20:27 | 26.14774 | -110.65669 | 34987 ft | 429 kts | 180° |
| 2026-05-04 20:28 | 26.08858 | -110.64795 | 34988 ft | 429 kts | 180° |
| 2026-05-04 20:28 | 26.02943 | -110.63928 | 34985 ft | 429 kts | 180° |
| 2026-05-04 20:29 | 25.97032 | -110.63065 | 34988 ft | 428 kts | 180° |
| 2026-05-04 20:29 | 25.91119 | -110.62198 | 34965 ft | 429 kts | 180° |
| 2026-05-04 20:30 | 25.85205 | -110.61332 | 34972 ft | 429 kts | 180° |
| 2026-05-04 20:30 | 25.79293 | -110.60472 | 34981 ft | 429 kts | 180° |
| 2026-05-04 20:31 | 25.74375 | -110.59752 | 34986 ft | 429 kts | 180° |
| 2026-05-04 20:31 | 25.68458 | -110.58891 | 34986 ft | 429 kts | 180° |
| 2026-05-04 20:32 | 25.61577 | -110.57889 | 34971 ft | 430 kts | 180° |
| 2026-05-04 20:32 | 25.55648 | -110.57027 | 34979 ft | 430 kts | 180° |
| 2026-05-04 20:33 | 25.50679 | -110.56297 | 34983 ft | 430 kts | 180° |
| 2026-05-04 20:33 | 25.44788 | -110.55436 | 34980 ft | 430 kts | 180° |
| 2026-05-04 20:34 | 25.38863 | -110.54580 | 34982 ft | 429 kts | 180° |
| 2026-05-04 20:34 | 25.32938 | -110.53719 | 34972 ft | 430 kts | 178° |
| 2026-05-04 20:35 | 25.30003 | -110.52906 | 34974 ft | 441 kts | 167° |
| 2026-05-04 20:35 | 25.27201 | -110.51438 | 34971 ft | 452 kts | 155° |
| 2026-05-04 20:35 | 25.24664 | -110.49325 | 34970 ft | 463 kts | 143° |
| 2026-05-04 20:35 | 25.22412 | -110.46758 | 34969 ft | 466 kts | 140° |
| 2026-05-04 20:36 | 25.17927 | -110.41553 | 34707 ft | 469 kts | 140° |
| 2026-05-04 20:36 | 25.15670 | -110.38950 | 34473 ft | 469 kts | 140° |
| 2026-05-04 20:36 | 25.13414 | -110.36352 | 34247 ft | 469 kts | 140° |
| 2026-05-04 20:37 | 25.11153 | -110.33750 | 34006 ft | 469 kts | 140° |
| 2026-05-04 20:37 | 25.08895 | -110.31150 | 33747 ft | 469 kts | 140° |
| 2026-05-04 20:37 | 25.06636 | -110.28548 | 33489 ft | 470 kts | 140° |
| 2026-05-04 20:37 | 25.04376 | -110.25946 | 33238 ft | 470 kts | 140° |
| 2026-05-04 20:38 | 25.02107 | -110.23344 | 32992 ft | 471 kts | 140° |
| 2026-05-04 20:38 | 24.99834 | -110.20744 | 32737 ft | 471 kts | 140° |
| 2026-05-04 20:38 | 24.97560 | -110.18141 | 32489 ft | 471 kts | 140° |
| 2026-05-04 20:38 | 24.95292 | -110.15539 | 32242 ft | 470 kts | 140° |
| 2026-05-04 20:39 | 24.93035 | -110.12945 | 31993 ft | 468 kts | 140° |
| 2026-05-04 20:39 | 24.90781 | -110.10356 | 31752 ft | 467 kts | 140° |
| 2026-05-04 20:39 | 24.88533 | -110.07775 | 31512 ft | 466 kts | 140° |
| 2026-05-04 20:39 | 24.86292 | -110.05207 | 31260 ft | 464 kts | 140° |
| 2026-05-04 20:40 | 24.84055 | -110.02647 | 31025 ft | 463 kts | 140° |
| 2026-05-04 20:40 | 24.81823 | -110.00097 | 30791 ft | 462 kts | 140° |
| 2026-05-04 20:40 | 24.79599 | -109.97556 | 30562 ft | 460 kts | 140° |
| 2026-05-04 20:40 | 24.77383 | -109.95022 | 30326 ft | 459 kts | 140° |
| 2026-05-04 20:41 | 24.75173 | -109.92490 | 30097 ft | 458 kts | 140° |
| 2026-05-04 20:41 | 24.72973 | -109.89969 | 29858 ft | 456 kts | 140° |
| 2026-05-04 20:41 | 24.70778 | -109.87462 | 29587 ft | 454 kts | 140° |
| 2026-05-04 20:41 | 24.68592 | -109.84969 | 29316 ft | 452 kts | 140° |
| 2026-05-04 20:42 | 24.66417 | -109.82493 | 29053 ft | 449 kts | 140° |
| 2026-05-04 20:42 | 24.64251 | -109.80030 | 28791 ft | 447 kts | 140° |
| 2026-05-04 20:42 | 24.62090 | -109.77577 | 28526 ft | 446 kts | 140° |
| 2026-05-04 20:42 | 24.59939 | -109.75137 | 28251 ft | 444 kts | 140° |
| 2026-05-04 20:43 | 24.57806 | -109.72716 | 27829 ft | 439 kts | 140° |
| 2026-05-04 20:43 | 24.55692 | -109.70313 | 27298 ft | 436 kts | 139° |
| 2026-05-04 20:43 | 24.53591 | -109.67925 | 26771 ft | 433 kts | 139° |
| 2026-05-04 20:43 | 24.51504 | -109.65554 | 26252 ft | 430 kts | 139° |
| 2026-05-04 20:44 | 24.49461 | -109.63229 | 25764 ft | 427 kts | 139° |
| 2026-05-04 20:44 | 24.47407 | -109.60892 | 25274 ft | 424 kts | 139° |
| 2026-05-04 20:44 | 24.45367 | -109.58575 | 24794 ft | 421 kts | 139° |
| 2026-05-04 20:44 | 24.43338 | -109.56275 | 24321 ft | 417 kts | 139° |
| 2026-05-04 20:45 | 24.41324 | -109.53999 | 23839 ft | 415 kts | 139° |
| 2026-05-04 20:45 | 24.39320 | -109.51739 | 23317 ft | 412 kts | 139° |
| 2026-05-04 20:45 | 24.37330 | -109.49495 | 22813 ft | 408 kts | 139° |
| 2026-05-04 20:45 | 24.35365 | -109.47287 | 22347 ft | 402 kts | 141° |
| 2026-05-04 20:46 | 24.33180 | -109.45463 | 21872 ft | 389 kts | 155° |
| 2026-05-04 20:46 | 24.30735 | -109.44314 | 21426 ft | 377 kts | 169° |
| 2026-05-04 20:46 | 24.28192 | -109.43853 | 20969 ft | 367 kts | 182° |
| 2026-05-04 20:46 | 24.25683 | -109.44041 | 20521 ft | 358 kts | 194° |
| 2026-05-04 20:47 | 24.23274 | -109.44647 | 20091 ft | 354 kts | 196° |
| 2026-05-04 20:47 | 24.20887 | -109.45263 | 19654 ft | 351 kts | 196° |
| 2026-05-04 20:47 | 24.18516 | -109.45870 | 19217 ft | 349 kts | 196° |
| 2026-05-04 20:47 | 24.16159 | -109.46472 | 18785 ft | 347 kts | 195° |
| 2026-05-04 20:48 | 24.13808 | -109.47071 | 18334 ft | 346 kts | 195° |
| 2026-05-04 20:48 | 24.11470 | -109.47666 | 17864 ft | 344 kts | 195° |
| 2026-05-04 20:48 | 24.09150 | -109.48255 | 17434 ft | 340 kts | 195° |
| 2026-05-04 20:48 | 24.06855 | -109.48836 | 17019 ft | 337 kts | 195° |
| 2026-05-04 20:49 | 24.04580 | -109.49411 | 16604 ft | 334 kts | 195° |
| 2026-05-04 20:49 | 24.02328 | -109.49983 | 16208 ft | 331 kts | 195° |
| 2026-05-04 20:49 | 24.00092 | -109.50554 | 15815 ft | 329 kts | 195° |
| 2026-05-04 20:49 | 23.97874 | -109.51121 | 15421 ft | 327 kts | 195° |
| 2026-05-04 20:50 | 23.95667 | -109.51686 | 15032 ft | 325 kts | 194° |
| 2026-05-04 20:50 | 23.93471 | -109.52246 | 14638 ft | 323 kts | 194° |
| 2026-05-04 20:50 | 23.91285 | -109.52800 | 14250 ft | 322 kts | 195° |
| 2026-05-04 20:50 | 23.89153 | -109.53521 | 13845 ft | 321 kts | 200° |
| 2026-05-04 20:51 | 23.87042 | -109.54301 | 13401 ft | 320 kts | 200° |
| 2026-05-04 20:51 | 23.84941 | -109.55077 | 12999 ft | 318 kts | 200° |
| 2026-05-04 20:51 | 23.82852 | -109.55849 | 12588 ft | 316 kts | 200° |
| 2026-05-04 20:51 | 23.80775 | -109.56617 | 12187 ft | 314 kts | 200° |
| 2026-05-04 20:52 | 23.78705 | -109.57382 | 11763 ft | 313 kts | 200° |
| 2026-05-04 20:52 | 23.76646 | -109.58142 | 11364 ft | 312 kts | 200° |
| 2026-05-04 20:52 | 23.74590 | -109.58899 | 10953 ft | 311 kts | 200° |
| 2026-05-04 20:52 | 23.72540 | -109.59657 | 10528 ft | 311 kts | 200° |
| 2026-05-04 20:53 | 23.70501 | -109.60412 | 10186 ft | 307 kts | 200° |
| 2026-05-04 20:53 | 23.68519 | -109.61142 | 9976 ft | 294 kts | 200° |
| 2026-05-04 20:53 | 23.66593 | -109.61851 | 9750 ft | 290 kts | 200° |
| 2026-05-04 20:53 | 23.64682 | -109.62554 | 9590 ft | 290 kts | 200° |
| 2026-05-04 20:54 | 23.62774 | -109.63256 | 9255 ft | 288 kts | 201° |
| 2026-05-04 20:54 | 23.60877 | -109.63954 | 8895 ft | 287 kts | 200° |
| 2026-05-04 20:54 | 23.58987 | -109.64649 | 8536 ft | 286 kts | 201° |
| 2026-05-04 20:54 | 23.57106 | -109.65339 | 8172 ft | 284 kts | 200° |
| 2026-05-04 20:55 | 23.55235 | -109.66027 | 7810 ft | 283 kts | 201° |
| 2026-05-04 20:55 | 23.53375 | -109.66711 | 7463 ft | 281 kts | 201° |
| 2026-05-04 20:55 | 23.51526 | -109.67390 | 7104 ft | 280 kts | 201° |
| 2026-05-04 20:55 | 23.49685 | -109.68066 | 6748 ft | 278 kts | 201° |
| 2026-05-04 20:56 | 23.47855 | -109.68739 | 6394 ft | 277 kts | 202° |
| 2026-05-04 20:56 | 23.46064 | -109.69398 | 6031 ft | 274 kts | 201° |
| 2026-05-04 20:56 | 23.44277 | -109.70056 | 5676 ft | 265 kts | 201° |
| 2026-05-04 20:56 | 23.42590 | -109.70672 | 5351 ft | 247 kts | 200° |
| 2026-05-04 20:57 | 23.41015 | -109.71246 | 5073 ft | 235 kts | 201° |
| 2026-05-04 20:57 | 23.39475 | -109.71812 | 4753 ft | 232 kts | 200° |
| 2026-05-04 20:57 | 23.37970 | -109.72366 | 4451 ft | 221 kts | 200° |
| 2026-05-04 20:57 | 23.36585 | -109.72871 | 4171 ft | 201 kts | 200° |
| 2026-05-04 20:58 | 23.35297 | -109.73343 | 3927 ft | 191 kts | 201° |
| 2026-05-04 20:58 | 23.34066 | -109.73797 | 3689 ft | 183 kts | 199° |
| 2026-05-04 20:58 | 23.32844 | -109.74070 | 3453 ft | 178 kts | 181° |
| 2026-05-04 20:58 | 23.31643 | -109.73954 | 3228 ft | 171 kts | 174° |
| 2026-05-04 20:59 | 23.30471 | -109.73820 | 3021 ft | 168 kts | 174° |
| 2026-05-04 20:59 | 23.29335 | -109.73691 | 2828 ft | 160 kts | 174° |
| 2026-05-04 20:59 | 23.28245 | -109.73569 | 2604 ft | 155 kts | 173° |
| 2026-05-04 20:59 | 23.27178 | -109.73450 | 2415 ft | 153 kts | 174° |
| 2026-05-04 21:00 | 23.26119 | -109.73330 | 2209 ft | 153 kts | 171° |
| 2026-05-04 21:00 | 23.25062 | -109.73209 | 2014 ft | 154 kts | 173° |
| 2026-05-04 21:00 | 23.23982 | -109.73086 | 1816 ft | 156 kts | 171° |
| 2026-05-04 21:00 | 23.22897 | -109.72961 | 1599 ft | 156 kts | 171° |
| 2026-05-04 21:01 | 23.21831 | -109.72839 | 1408 ft | 152 kts | 171° |
| 2026-05-04 21:01 | 23.20800 | -109.72719 | 1209 ft | 145 kts | 172° |
| 2026-05-04 21:01 | 23.19807 | -109.72601 | 1090 ft | 144 kts | 172° |
| 2026-05-04 21:01 | 23.18824 | -109.72487 | 921 ft | 142 kts | 171° |
| 2026-05-04 21:02 | 23.17852 | -109.72392 | 722 ft | 139 kts | 171° |
| 2026-05-04 21:02 | 23.16899 | -109.72274 | 504 ft | 135 kts | 170° |
| 2026-05-04 21:02 | 23.15980 | -109.72162 | 382 ft | 126 kts | 171° |
| 2026-05-04 21:02 | 23.15255 | -109.72080 | 351 ft | 78 kts | 174° |
| 2026-05-04 21:03 | 23.14881 | -109.72039 | 347 ft | 33 kts | 174° |
| 2026-05-04 21:03 | 23.14735 | -109.72017 | 345 ft | 18 kts | 161° |
| 2026-05-04 21:03 | 23.14620 | -109.71953 | 334 ft | 20 kts | 150° |
| 2026-05-04 21:03 | 23.14506 | -109.71867 | 329 ft | 11 kts | 144° |
| 2026-05-04 21:04 | 23.14468 | -109.71796 | 324 ft | 12 kts | 58° |
| 2026-05-04 21:04 | 23.14535 | -109.71793 | 327 ft | 8 kts | 353° |
| 2026-05-04 21:04 | 23.14576 | -109.71798 | 329 ft | 4 kts | 353° |
| 2026-05-04 21:04 | 23.14621 | -109.71804 | 329 ft | 10 kts | 353° |
| 2026-05-04 21:05 | 23.14698 | -109.71813 | 334 ft | 12 kts | 354° |
| 2026-05-04 21:05 | 23.14769 | -109.71821 | 336 ft | 8 kts | 354° |
| 2026-05-04 21:05 | 23.14832 | -109.71828 | 339 ft | 13 kts | 354° |
| 2026-05-04 21:05 | 23.14952 | -109.71841 | 352 ft | 21 kts | 354° |
| 2026-05-04 21:06 | 23.15087 | -109.71856 | 353 ft | 18 kts | 354° |
| 2026-05-04 21:06 | 23.15200 | -109.71869 | 355 ft | 15 kts | 354° |
| 2026-05-04 21:06 | 23.15290 | -109.71879 | 360 ft | 11 kts | 354° |
| 2026-05-04 21:06 | 23.15357 | -109.71887 | 361 ft | 9 kts | 354° |
| 2026-05-04 21:07 | 23.15445 | -109.71897 | 362 ft | 17 kts | 354° |
| 2026-05-04 21:07 | 23.15577 | -109.71912 | 366 ft | 19 kts | 354° |
| 2026-05-04 21:07 | 23.15666 | -109.71922 | 368 ft | 7 kts | 354° |
| 2026-05-04 21:07 | 23.15708 | -109.71914 | 367 ft | 5 kts | 35° |
| 2026-05-04 21:08 | 23.15720 | -109.71877 | 365 ft | 6 kts | 82° |
| 2026-05-04 21:08 | 23.15745 | -109.71852 | 367 ft | 5 kts | 13° |
| 2026-05-04 21:08 | 23.15774 | -109.71841 | 365 ft | 5 kts | 46° |
| 2026-05-04 21:08 | 23.15779 | -109.71806 | 364 ft | 5 kts | 84° |
| 2026-05-04 21:09 | 23.15781 | -109.71787 | 364 ft | 2 kts | 83° |
| 2026-05-04 21:09 | 23.15781 | -109.71784 | 364 ft | 0 kts | 83° |